sensor_id;sensor_type;location;lat;lon;timestamp;pressure;altitude;pressure_sealevel;temperature;humidity
49945;BME280;35838;49.134;9.212;2023-04-09T00:00:47;100641.41;;;8.85;66.13
49945;BME280;35838;49.134;9.212;2023-04-09T00:02:23;100644.00;;;8.85;66.51
49945;BME280;35838;49.134;9.212;2023-04-09T00:03:57;100639.69;;;8.87;66.34
49945;BME280;35838;49.134;9.212;2023-04-09T00:05:30;100638.81;;;8.85;66.18
49945;BME280;35838;49.134;9.212;2023-04-09T00:07:04;100639.56;;;8.77;66.39
49945;BME280;35838;49.134;9.212;2023-04-09T00:08:35;100644.00;;;8.85;66.34
49945;BME280;35838;49.134;9.212;2023-04-09T00:10:09;100639.66;;;8.84;66.10
49945;BME280;35838;49.134;9.212;2023-04-09T00:11:42;100634.44;;;8.81;66.25
49945;BME280;35838;49.134;9.212;2023-04-09T00:13:16;100627.50;;;8.78;66.15
49945;BME280;35838;49.134;9.212;2023-04-09T00:14:50;100631.84;;;8.82;66.17
49945;BME280;35838;49.134;9.212;2023-04-09T00:16:25;100629.25;;;8.79;66.04
49945;BME280;35838;49.134;9.212;2023-04-09T00:18:01;100626.63;;;8.77;65.67
49945;BME280;35838;49.134;9.212;2023-04-09T00:19:35;100638.81;;;8.85;65.67
49945;BME280;35838;49.134;9.212;2023-04-09T00:21:08;100630.16;;;8.81;65.58
49945;BME280;35838;49.134;9.212;2023-04-09T00:22:42;100635.25;;;8.78;65.54
49945;BME280;35838;49.134;9.212;2023-04-09T00:24:16;100626.66;;;8.81;66.02
49945;BME280;35838;49.134;9.212;2023-04-09T00:25:50;100621.50;;;8.81;65.40
49945;BME280;35838;49.134;9.212;2023-04-09T00:27:23;100623.22;;;8.80;65.47
49945;BME280;35838;49.134;9.212;2023-04-09T00:28:55;100624.13;;;8.84;65.27
49945;BME280;35838;49.134;9.212;2023-04-09T00:30:29;100621.50;;;8.81;65.23
49945;BME280;35838;49.134;9.212;2023-04-09T00:32:00;100620.59;;;8.78;65.01
49945;BME280;35838;49.134;9.212;2023-04-09T00:33:36;100623.94;;;8.71;65.01
49945;BME280;35838;49.134;9.212;2023-04-09T00:35:08;100617.84;;;8.66;65.05
49945;BME280;35838;49.134;9.212;2023-04-09T00:36:41;100620.50;;;8.71;64.92
49945;BME280;35838;49.134;9.212;2023-04-09T00:38:15;100625.69;;;8.72;65.06
49945;BME280;35838;49.134;9.212;2023-04-09T00:39:48;100622.16;;;8.67;65.31
49945;BME280;35838;49.134;9.212;2023-04-09T00:41:22;100621.31;;;8.68;65.27
49945;BME280;35838;49.134;9.212;2023-04-09T00:42:56;100626.44;;;8.65;65.57
49945;BME280;35838;49.134;9.212;2023-04-09T00:44:29;100623.78;;;8.59;65.53
49945;BME280;35838;49.134;9.212;2023-04-09T00:46:03;100627.22;;;8.61;65.63
49945;BME280;35838;49.134;9.212;2023-04-09T00:47:37;100618.53;;;8.56;65.59
49945;BME280;35838;49.134;9.212;2023-04-09T00:49:10;100622.03;;;8.58;65.88
49945;BME280;35838;49.134;9.212;2023-04-09T00:50:44;100619.44;;;8.58;66.15
49945;BME280;35838;49.134;9.212;2023-04-09T00:52:18;100620.22;;;8.54;66.29
49945;BME280;35838;49.134;9.212;2023-04-09T00:53:52;100621.91;;;8.52;66.27
49945;BME280;35838;49.134;9.212;2023-04-09T00:55:25;100626.22;;;8.51;66.03
49945;BME280;35838;49.134;9.212;2023-04-09T00:56:59;100621.06;;;8.51;66.15
49945;BME280;35838;49.134;9.212;2023-04-09T00:58:33;100614.03;;;8.45;66.34
49945;BME280;35838;49.134;9.212;2023-04-09T01:00:07;100616.72;;;8.49;66.09
49945;BME280;35838;49.134;9.212;2023-04-09T01:01:41;100617.56;;;8.48;65.97
49945;BME280;35838;49.134;9.212;2023-04-09T01:03:14;100618.38;;;8.46;66.02
49945;BME280;35838;49.134;9.212;2023-04-09T01:04:50;100618.31;;;8.43;65.96
49945;BME280;35838;49.134;9.212;2023-04-09T01:06:26;100621.78;;;8.45;65.89
49945;BME280;35838;49.134;9.212;2023-04-09T01:08:03;100621.78;;;8.45;65.85
49945;BME280;35838;49.134;9.212;2023-04-09T01:09:41;100620.09;;;8.46;66.03
49945;BME280;35838;49.134;9.212;2023-04-09T01:11:19;100619.28;;;8.49;66.07
49945;BME280;35838;49.134;9.212;2023-04-09T01:12:59;100622.72;;;8.48;65.69
49945;BME280;35838;49.134;9.212;2023-04-09T01:14:37;100620.94;;;8.46;65.99
49945;BME280;35838;49.134;9.212;2023-04-09T01:16:11;100613.94;;;8.39;65.89
49945;BME280;35838;49.134;9.212;2023-04-09T01:17:47;100619.13;;;8.39;66.00
49945;BME280;35838;49.134;9.212;2023-04-09T01:19:28;100618.22;;;8.39;66.24
49945;BME280;35838;49.134;9.212;2023-04-09T01:21:09;100612.06;;;8.30;66.34
49945;BME280;35838;49.134;9.212;2023-04-09T01:22:47;100612.94;;;8.31;66.27
49945;BME280;35838;49.134;9.212;2023-04-09T01:24:30;100613.88;;;8.35;66.20
49945;BME280;35838;49.134;9.212;2023-04-09T01:26:06;100611.09;;;8.24;66.78
49945;BME280;35838;49.134;9.212;2023-04-09T01:27:43;100611.97;;;8.24;66.30
49945;BME280;35838;49.134;9.212;2023-04-09T01:29:22;100612.81;;;8.25;66.55
49945;BME280;35838;49.134;9.212;2023-04-09T01:30:56;100616.22;;;8.22;66.56
49945;BME280;35838;49.134;9.212;2023-04-09T01:32:29;100617.13;;;8.23;66.59
49945;BME280;35838;49.134;9.212;2023-04-09T01:34:04;100619.66;;;8.20;67.15
49945;BME280;35838;49.134;9.212;2023-04-09T01:35:38;100617.88;;;8.17;67.11
49945;BME280;35838;49.134;9.212;2023-04-09T01:37:14;100620.50;;;8.20;66.69
49945;BME280;35838;49.134;9.212;2023-04-09T01:38:48;100615.22;;;8.12;66.93
49945;BME280;35838;49.134;9.212;2023-04-09T01:40:20;100620.41;;;8.15;67.22
49945;BME280;35838;49.134;9.212;2023-04-09T01:41:54;100624.72;;;8.13;67.22
49945;BME280;35838;49.134;9.212;2023-04-09T01:43:28;100619.47;;;8.10;67.11
49945;BME280;35838;49.134;9.212;2023-04-09T01:46:36;100624.72;;;8.13;67.11
49945;BME280;35838;49.134;9.212;2023-04-09T01:48:11;100616.84;;;8.07;67.33
49945;BME280;35838;49.134;9.212;2023-04-09T01:49:45;100621.16;;;8.07;67.12
49945;BME280;35838;49.134;9.212;2023-04-09T01:51:19;100617.72;;;8.08;67.22
49945;BME280;35838;49.134;9.212;2023-04-09T01:52:53;100627.25;;;8.10;67.15
49945;BME280;35838;49.134;9.212;2023-04-09T01:54:26;100620.31;;;8.09;67.42
49945;BME280;35838;49.134;9.212;2023-04-09T01:56:00;100625.47;;;8.06;67.90
49945;BME280;35838;49.134;9.212;2023-04-09T01:57:34;100622.81;;;8.03;67.67
49945;BME280;35838;49.134;9.212;2023-04-09T01:59:07;100621.00;;;7.99;67.48
49945;BME280;35838;49.134;9.212;2023-04-09T02:00:44;100619.34;;;8.03;67.30
49945;BME280;35838;49.134;9.212;2023-04-09T02:02:23;100616.75;;;8.03;67.43
49945;BME280;35838;49.134;9.212;2023-04-09T02:03:59;100622.81;;;8.03;67.10
49945;BME280;35838;49.134;9.212;2023-04-09T02:05:35;100618.38;;;7.96;67.54
49945;BME280;35838;49.134;9.212;2023-04-09T02:07:11;100621.84;;;7.98;67.71
49945;BME280;35838;49.134;9.212;2023-04-09T02:08:47;100619.16;;;7.92;67.80
49945;BME280;35838;49.134;9.212;2023-04-09T02:10:23;100626.00;;;7.90;67.75
49945;BME280;35838;49.134;9.212;2023-04-09T02:11:59;100621.69;;;7.89;68.08
49945;BME280;35838;49.134;9.212;2023-04-09T02:13:32;100618.97;;;7.82;68.33
49945;BME280;35838;49.134;9.212;2023-04-09T02:15:06;100619.72;;;7.75;68.48
49945;BME280;35838;49.134;9.212;2023-04-09T02:16:38;100621.44;;;7.75;68.63
49945;BME280;35838;49.134;9.212;2023-04-09T02:18:24;100626.66;;;7.78;68.85
49945;BME280;35838;49.134;9.212;2023-04-09T02:19:58;100627.44;;;7.74;68.97
49945;BME280;35838;49.134;9.212;2023-04-09T02:21:32;100625.72;;;7.74;68.76
49945;BME280;35838;49.134;9.212;2023-04-09T02:23:03;100625.59;;;7.66;68.90
49945;BME280;35838;49.134;9.212;2023-04-09T02:24:37;100622.22;;;7.72;68.57
49945;BME280;35838;49.134;9.212;2023-04-09T02:26:11;100624.72;;;7.67;68.87
49945;BME280;35838;49.134;9.212;2023-04-09T02:27:44;100629.22;;;7.76;68.98
49945;BME280;35838;49.134;9.212;2023-04-09T02:29:18;100619.56;;;7.67;69.30
49945;BME280;35838;49.134;9.212;2023-04-09T02:30:52;100622.38;;;7.78;69.14
49945;BME280;35838;49.134;9.212;2023-04-09T02:32:25;100622.47;;;7.84;68.89
49945;BME280;35838;49.134;9.212;2023-04-09T02:34:02;100621.63;;;7.84;68.77
49945;BME280;35838;49.134;9.212;2023-04-09T02:35:33;100622.41;;;7.81;68.78
49945;BME280;35838;49.134;9.212;2023-04-09T02:37:06;100621.53;;;7.79;68.69
49945;BME280;35838;49.134;9.212;2023-04-09T02:38:40;100618.97;;;7.82;68.70
49945;BME280;35838;49.134;9.212;2023-04-09T02:40:14;100622.38;;;7.78;68.94
49945;BME280;35838;49.134;9.212;2023-04-09T02:41:47;100624.16;;;7.82;68.91
49945;BME280;35838;49.134;9.212;2023-04-09T02:43:21;100617.22;;;7.81;68.90
49945;BME280;35838;49.134;9.212;2023-04-09T02:44:55;100623.31;;;7.85;68.67
49945;BME280;35838;49.134;9.212;2023-04-09T02:46:28;100622.56;;;7.91;68.52
49945;BME280;35838;49.134;9.212;2023-04-09T02:48:02;100620.81;;;7.90;68.48
49945;BME280;35838;49.134;9.212;2023-04-09T02:49:38;100622.50;;;7.86;68.59
49945;BME280;35838;49.134;9.212;2023-04-09T02:51:12;100623.28;;;7.82;69.08
49945;BME280;35838;49.134;9.212;2023-04-09T02:52:45;100619.81;;;7.81;69.40
49945;BME280;35838;49.134;9.212;2023-04-09T02:54:17;100626.69;;;7.79;69.43
49945;BME280;35838;49.134;9.212;2023-04-09T02:55:50;100617.97;;;7.76;69.39
49945;BME280;35838;49.134;9.212;2023-04-09T02:57:24;100623.97;;;7.73;69.48
49945;BME280;35838;49.134;9.212;2023-04-09T02:58:58;100625.72;;;7.76;69.73
49945;BME280;35838;49.134;9.212;2023-04-09T03:00:31;100619.72;;;7.77;69.46
49945;BME280;35838;49.134;9.212;2023-04-09T03:02:05;100613.78;;;7.79;69.24
49945;BME280;35838;49.134;9.212;2023-04-09T03:03:38;100618.13;;;7.82;69.39
49945;BME280;35838;49.134;9.212;2023-04-09T03:05:15;100611.28;;;7.84;69.24
49945;BME280;35838;49.134;9.212;2023-04-09T03:06:46;100609.47;;;7.80;69.52
49945;BME280;35838;49.134;9.212;2023-04-09T03:08:23;100608.63;;;7.82;69.13
49945;BME280;35838;49.134;9.212;2023-04-09T03:09:56;100610.31;;;7.80;69.26
